Home > Products > Valid Products > TAF

000
FTUS45 KBOU 312223 AAC
TAFDEN
TAF AMD
KDEN 312223Z 3122/0124 33003KT 5SM -SN BKN040 BKN060
      TEMPO 3122/3123 1 1/2SM -SHSN BKN015 OVC060
     FM010000 22007KT P6SM SCT040 BKN060
     FM010400 02015KT P6SM VCSH SCT020 BKN040
     FM010500 02014G24KT 3SM -SHSN SCT008 BKN018 OVC030
      TEMPO 0106/0110 3/4SM -SHSN VV008
     FM011000 03010KT 5SM -SN SCT018 BKN030
      TEMPO 0110/0113 1SM -SN BKN015
     FM011300 05007KT P6SM VCSH SCT012 BKN022
     FM011500 07007KT P6SM SCT020 BKN040
     FM011900 10007KT P6SM SCT040 BKN060=



000
FTUS45 KBOU 312223 AAC
TAFDEN
TAF AMD
KDEN 312223Z 3122/0124 33003KT 5SM -SN BKN040 BKN060
      TEMPO 3122/3123 1 1/2SM -SHSN BKN015 OVC060
     FM010000 22007KT P6SM SCT040 BKN060
     FM010400 02015KT P6SM VCSH SCT020 BKN040
     FM010500 02014G24KT 3SM -SHSN SCT008 BKN018 OVC030
      TEMPO 0106/0110 3/4SM -SHSN VV008
     FM011000 03010KT 5SM -SN SCT018 BKN030
      TEMPO 0110/0113 1SM -SN BKN015
     FM011300 05007KT P6SM VCSH SCT012 BKN022
     FM011500 07007KT P6SM SCT020 BKN040
     FM011900 10007KT P6SM SCT040 BKN060=



000
FTUS45 KBOU 312207 AAC
TAFAPA
TAF AMD
KAPA 312207Z 3122/0118 VRB05KT P6SM VCSH SCT035 BKN050
      TEMPO 3122/3123 5SM -SHSN BKN025 OVC040
     FM010400 02014G20KT P6SM VCSH SCT020 OVC040
     FM010600 02012KT 3SM -SHSN SCT008 BKN014 OVC020
      TEMPO 0106/0110 1/2SM SHSN VV005
     FM011400 05007KT P6SM VCSH SCT012 BKN022
     FM011600 07007KT P6SM SCT020 BKN040=



000
FTUS45 KBOU 312207 AAC
TAFAPA
TAF AMD
KAPA 312207Z 3122/0118 VRB05KT P6SM VCSH SCT035 BKN050
      TEMPO 3122/3123 5SM -SHSN BKN025 OVC040
     FM010400 02014G20KT P6SM VCSH SCT020 OVC040
     FM010600 02012KT 3SM -SHSN SCT008 BKN014 OVC020
      TEMPO 0106/0110 1/2SM SHSN VV005
     FM011400 05007KT P6SM VCSH SCT012 BKN022
     FM011600 07007KT P6SM SCT020 BKN040=



000
FTUS45 KBOU 312205 AAB
TAFDEN
TAF AMD
KDEN 312205Z 3122/0124 03007KT P6SM VCSH BKN040 BKN060
      TEMPO 3122/3123 3SM -SHRASN BKN015 OVC060
     FM010300 02014G22KT P6SM VCSH SCT020 BKN040
     FM010500 02014KT 4SM -SHSN SCT008 BKN018 OVC030
      TEMPO 0106/0110 3/4SM -SHSN VV008
     FM011200 05007KT P6SM VCSH SCT012 BKN022
     FM011500 07007KT P6SM SCT020 BKN040
     FM011900 10007KT P6SM SCT040 BKN060=



000
FTUS45 KBOU 312205 AAB
TAFDEN
TAF AMD
KDEN 312205Z 3122/0124 03007KT P6SM VCSH BKN040 BKN060
      TEMPO 3122/3123 3SM -SHRASN BKN015 OVC060
     FM010300 02014G22KT P6SM VCSH SCT020 BKN040
     FM010500 02014KT 4SM -SHSN SCT008 BKN018 OVC030
      TEMPO 0106/0110 3/4SM -SHSN VV008
     FM011200 05007KT P6SM VCSH SCT012 BKN022
     FM011500 07007KT P6SM SCT020 BKN040
     FM011900 10007KT P6SM SCT040 BKN060=



000
FTUS45 KBOU 312203 AAB
TAFBJC
TAF AMD
KBJC 312203Z 3122/0118 VRB05KT P6SM VCSH BKN030 BKN060
     FM010400 02014G24KT P6SM VCSH SCT020 BKN040
     FM010600 02012KT 4SM -SHSN SCT008 BKN018 OVC030
      TEMPO 0106/0110 3/4SM -SHSN VV008
     FM011400 05007KT P6SM VCSH SCT012 BKN022
     FM011600 07007KT P6SM SCT020 BKN040=



000
FTUS45 KBOU 312203 AAB
TAFBJC
TAF AMD
KBJC 312203Z 3122/0118 VRB05KT P6SM VCSH BKN030 BKN060
     FM010400 02014G24KT P6SM VCSH SCT020 BKN040
     FM010600 02012KT 4SM -SHSN SCT008 BKN018 OVC030
      TEMPO 0106/0110 3/4SM -SHSN VV008
     FM011400 05007KT P6SM VCSH SCT012 BKN022
     FM011600 07007KT P6SM SCT020 BKN040=



000
FTUS45 KBOU 312045 AAA
TAFBJC
TAF AMD
KBJC 312045Z 3121/0118 03007KT P6SM VCSH BKN040 BKN060
      TEMPO 3121/0101 3SM -SHSN BKN025 OVC060
     FM010400 02014G22KT P6SM VCSH SCT020 BKN040
     FM010600 02012KT 4SM -SHSN SCT008 BKN018 OVC030
      TEMPO 0106/0110 3/4SM -SHSN VV008
     FM011400 05007KT P6SM VCSH SCT012 BKN022
     FM011600 07007KT P6SM SCT020 BKN040=



000
FTUS45 KBOU 312045 AAA
TAFBJC
TAF AMD
KBJC 312045Z 3121/0118 03007KT P6SM VCSH BKN040 BKN060
      TEMPO 3121/0101 3SM -SHSN BKN025 OVC060
     FM010400 02014G22KT P6SM VCSH SCT020 BKN040
     FM010600 02012KT 4SM -SHSN SCT008 BKN018 OVC030
      TEMPO 0106/0110 3/4SM -SHSN VV008
     FM011400 05007KT P6SM VCSH SCT012 BKN022
     FM011600 07007KT P6SM SCT020 BKN040=



000
FTUS45 KBOU 312043 AAB
TAFAPA
TAF AMD
KAPA 312043Z 3121/0118 03007KT P6SM VCSH SCT035 BKN040
      TEMPO 3121/0101 3SM -SHSN BKN025 OVC040
     FM010400 02014G20KT P6SM VCSH SCT020 OVC040
     FM010600 02012KT 3SM -SHSN SCT008 BKN014 OVC020
      TEMPO 0106/0110 1/2SM SHSN VV005
     FM011400 05007KT P6SM VCSH SCT012 BKN022
     FM011600 07007KT P6SM SCT020 BKN040=



000
FTUS45 KBOU 312043 AAB
TAFAPA
TAF AMD
KAPA 312043Z 3121/0118 03007KT P6SM VCSH SCT035 BKN040
      TEMPO 3121/0101 3SM -SHSN BKN025 OVC040
     FM010400 02014G20KT P6SM VCSH SCT020 OVC040
     FM010600 02012KT 3SM -SHSN SCT008 BKN014 OVC020
      TEMPO 0106/0110 1/2SM SHSN VV005
     FM011400 05007KT P6SM VCSH SCT012 BKN022
     FM011600 07007KT P6SM SCT020 BKN040=



000
FTUS45 KBOU 312042 AAA
TAFDEN
TAF AMD
KDEN 312042Z 3121/0124 03007KT P6SM VCSH BKN040 BKN060
      TEMPO 3121/0101 3SM -SHRASN BKN025 OVC060
     FM010300 02014G22KT P6SM VCSH SCT020 BKN040
     FM010500 02014KT 4SM -SHSN SCT008 BKN018 OVC030
      TEMPO 0106/0110 3/4SM -SHSN VV008
     FM011200 05007KT P6SM VCSH SCT012 BKN022
     FM011500 07007KT P6SM SCT020 BKN040
     FM011900 10007KT P6SM SCT040 BKN060=



000
FTUS45 KBOU 312042 AAA
TAFDEN
TAF AMD
KDEN 312042Z 3121/0124 03007KT P6SM VCSH BKN040 BKN060
      TEMPO 3121/0101 3SM -SHRASN BKN025 OVC060
     FM010300 02014G22KT P6SM VCSH SCT020 BKN040
     FM010500 02014KT 4SM -SHSN SCT008 BKN018 OVC030
      TEMPO 0106/0110 3/4SM -SHSN VV008
     FM011200 05007KT P6SM VCSH SCT012 BKN022
     FM011500 07007KT P6SM SCT020 BKN040
     FM011900 10007KT P6SM SCT040 BKN060=



000
FTUS45 KBOU 312003 AAA
TAFAPA
TAF AMD
KAPA 312003Z 3120/0118 32005KT P6SM BKN040 BKN100
      TEMPO 3120/3121 BKN030
     FM312100 03007KT P6SM VCSH SCT035 BKN040
      TEMPO 3121/0101 5SM -SHRASN BKN025 OVC040
     FM010400 02014G20KT P6SM VCSH SCT020 OVC040
     FM010600 02012KT 3SM -SHSN SCT008 BKN014 OVC020
      TEMPO 0106/0110 1/2SM SHSN VV005
     FM011400 05007KT P6SM VCSH SCT012 BKN022
     FM011600 07007KT P6SM SCT020 BKN040=



000
FTUS45 KBOU 312003 AAA
TAFAPA
TAF AMD
KAPA 312003Z 3120/0118 32005KT P6SM BKN040 BKN100
      TEMPO 3120/3121 BKN030
     FM312100 03007KT P6SM VCSH SCT035 BKN040
      TEMPO 3121/0101 5SM -SHRASN BKN025 OVC040
     FM010400 02014G20KT P6SM VCSH SCT020 OVC040
     FM010600 02012KT 3SM -SHSN SCT008 BKN014 OVC020
      TEMPO 0106/0110 1/2SM SHSN VV005
     FM011400 05007KT P6SM VCSH SCT012 BKN022
     FM011600 07007KT P6SM SCT020 BKN040=



000
FTUS45 KBOU 311727
TAFDEN
TAF
KDEN 311727Z 3118/0124 33005KT P6SM SCT060 BKN100
      TEMPO 3118/3121 BKN060
     FM312100 03007KT P6SM VCSH SCT040 BKN060
      TEMPO 3121/0101 6SM -SHRASN BKN040 OVC060
     FM010400 02014G22KT P6SM VCSH SCT020 BKN040
     FM010600 02012KT 4SM -SHSN SCT008 BKN018 OVC030
      TEMPO 0106/0110 3/4SM -SHSN VV008
     FM011200 05007KT P6SM VCSH SCT012 BKN022
     FM011500 07007KT P6SM SCT020 BKN040
     FM011900 10007KT P6SM SCT040 BKN060=



000
FTUS45 KBOU 311727
TAFBJC
TAF
KBJC 311727Z 3118/0118 35005KT P6SM SCT060 BKN100
      TEMPO 3118/3121 BKN060
     FM312100 03007KT P6SM VCSH SCT040 BKN060
      TEMPO 3121/0101 6SM -SHRASN BKN040 OVC060
     FM010400 02014G22KT P6SM VCSH SCT020 BKN040
     FM010600 02012KT 4SM -SHSN SCT008 BKN018 OVC030
      TEMPO 0106/0110 3/4SM -SHSN VV008
     FM011400 05007KT P6SM VCSH SCT012 BKN022
     FM011600 07007KT P6SM SCT020 BKN040=



000
FTUS45 KBOU 311727
TAFAPA
TAF
KAPA 311727Z 3118/0118 32005KT P6SM SCT050 BKN100
      TEMPO 3118/3121 BKN050
     FM312100 03007KT P6SM VCSH SCT035 BKN050
      TEMPO 3121/0101 5SM -SHRASN BKN035 OVC050
     FM010400 02014G20KT P6SM VCSH SCT020 OVC040
     FM010600 02012KT 3SM -SHSN SCT008 BKN014 OVC020
      TEMPO 0106/0110 1/2SM SHSN VV005
     FM011400 05007KT P6SM VCSH SCT012 BKN022
     FM011600 07007KT P6SM SCT020 BKN040=



000
FTUS45 KBOU 311727
TAFBJC
TAF
KBJC 311727Z 3118/0118 35005KT P6SM SCT060 BKN100
      TEMPO 3118/3121 BKN060
     FM312100 03007KT P6SM VCSH SCT040 BKN060
      TEMPO 3121/0101 6SM -SHRASN BKN040 OVC060
     FM010400 02014G22KT P6SM VCSH SCT020 BKN040
     FM010600 02012KT 4SM -SHSN SCT008 BKN018 OVC030
      TEMPO 0106/0110 3/4SM -SHSN VV008
     FM011400 05007KT P6SM VCSH SCT012 BKN022
     FM011600 07007KT P6SM SCT020 BKN040=



000
FTUS45 KBOU 311727
TAFAPA
TAF
KAPA 311727Z 3118/0118 32005KT P6SM SCT050 BKN100
      TEMPO 3118/3121 BKN050
     FM312100 03007KT P6SM VCSH SCT035 BKN050
      TEMPO 3121/0101 5SM -SHRASN BKN035 OVC050
     FM010400 02014G20KT P6SM VCSH SCT020 OVC040
     FM010600 02012KT 3SM -SHSN SCT008 BKN014 OVC020
      TEMPO 0106/0110 1/2SM SHSN VV005
     FM011400 05007KT P6SM VCSH SCT012 BKN022
     FM011600 07007KT P6SM SCT020 BKN040=



000
FTUS45 KBOU 311727
TAFDEN
TAF
KDEN 311727Z 3118/0124 33005KT P6SM SCT060 BKN100
      TEMPO 3118/3121 BKN060
     FM312100 03007KT P6SM VCSH SCT040 BKN060
      TEMPO 3121/0101 6SM -SHRASN BKN040 OVC060
     FM010400 02014G22KT P6SM VCSH SCT020 BKN040
     FM010600 02012KT 4SM -SHSN SCT008 BKN018 OVC030
      TEMPO 0106/0110 3/4SM -SHSN VV008
     FM011200 05007KT P6SM VCSH SCT012 BKN022
     FM011500 07007KT P6SM SCT020 BKN040
     FM011900 10007KT P6SM SCT040 BKN060=



000
FTUS45 KBOU 311501 AAA
TAFDEN
TAF AMD
KDEN 311501Z 3115/0118 25004KT P6SM SCT060 BKN100
     FM311700 33005KT P6SM SCT050 BKN070 BKN100
     FM312100 03007KT P6SM VCSH SCT040 BKN060
      TEMPO 3121/0101 6SM -SHRASN BKN040 OVC060
     FM010400 02014G22KT P6SM VCSH SCT020 BKN040
     FM010600 02012KT 4SM -SHSN SCT008 BKN018 OVC030
      TEMPO 0106/0110 3/4SM -SHSN VV008
     FM011200 05007KT P6SM VCSH SCT012 BKN022
     FM011500 08007KT P6SM SCT020 BKN040=



000
FTUS45 KBOU 311127
TAFAPA
TAF
KAPA 311127Z 3112/0112 30003KT P6SM SCT045 BKN060 OVC100
     FM311700 33005KT P6SM SCT045 BKN060 BKN100
     FM312100 03007KT P6SM VCSH SCT040 BKN060
      TEMPO 3121/0101 5SM -SHRASN BKN040 OVC060
     FM010400 02014G20KT P6SM VCSH SCT020 BKN040
     FM010600 02012KT 3SM -SHSN SCT008 BKN014 OVC020
      TEMPO 0106/0110 1/2SM SHSN VV005=



000
FTUS45 KBOU 311127
TAFBJC
TAF
KBJC 311127Z 3112/0112 32003KT P6SM SCT050 BKN070 OVC100
     FM311700 33005KT P6SM SCT050 BKN070 BKN100
     FM312100 02008KT P6SM VCSH SCT040 BKN060
     FM010400 02014G20KT P6SM VCSH SCT020 BKN040
     FM010600 02012KT 4SM -SHSN SCT008 BKN018 OVC030
      TEMPO 0106/0110 1/2SM SHSN VV008=



000
FTUS45 KBOU 311127
TAFDEN
TAF
KDEN 311127Z 3112/0118 30003KT P6SM SCT050 BKN070 OVC100
     FM311700 33005KT P6SM SCT050 BKN070 BKN100
     FM312100 03007KT P6SM VCSH SCT040 BKN060
      TEMPO 3121/0101 6SM -SHRASN BKN040 OVC060
     FM010400 02014G22KT P6SM VCSH SCT020 BKN040
     FM010600 02012KT 4SM -SHSN SCT008 BKN018 OVC030
      TEMPO 0106/0110 3/4SM -SHSN VV008
     FM011200 05007KT P6SM VCSH SCT012 BKN022
     FM011500 08007KT P6SM SCT020 BKN040=



000
FTUS45 KBOU 311127
TAFBJC
TAF
KBJC 311127Z 3112/0112 32003KT P6SM SCT050 BKN070 OVC100
     FM311700 33005KT P6SM SCT050 BKN070 BKN100
     FM312100 02008KT P6SM VCSH SCT040 BKN060
     FM010400 02014G20KT P6SM VCSH SCT020 BKN040
     FM010600 02012KT 4SM -SHSN SCT008 BKN018 OVC030
      TEMPO 0106/0110 1/2SM SHSN VV008=



000
FTUS45 KBOU 311127
TAFAPA
TAF
KAPA 311127Z 3112/0112 30003KT P6SM SCT045 BKN060 OVC100
     FM311700 33005KT P6SM SCT045 BKN060 BKN100
     FM312100 03007KT P6SM VCSH SCT040 BKN060
      TEMPO 3121/0101 5SM -SHRASN BKN040 OVC060
     FM010400 02014G20KT P6SM VCSH SCT020 BKN040
     FM010600 02012KT 3SM -SHSN SCT008 BKN014 OVC020
      TEMPO 0106/0110 1/2SM SHSN VV005=



000
FTUS45 KBOU 311127
TAFDEN
TAF
KDEN 311127Z 3112/0118 30003KT P6SM SCT050 BKN070 OVC100
     FM311700 33005KT P6SM SCT050 BKN070 BKN100
     FM312100 03007KT P6SM VCSH SCT040 BKN060
      TEMPO 3121/0101 6SM -SHRASN BKN040 OVC060
     FM010400 02014G22KT P6SM VCSH SCT020 BKN040
     FM010600 02012KT 4SM -SHSN SCT008 BKN018 OVC030
      TEMPO 0106/0110 3/4SM -SHSN VV008
     FM011200 05007KT P6SM VCSH SCT012 BKN022
     FM011500 08007KT P6SM SCT020 BKN040=



000
FTUS45 KBOU 310906 AAB
TAFDEN
TAF AMD
KDEN 310906Z 3109/0112 34007KT P6SM SCT070 OVC110
     FM311200 29006KT P6SM SCT060 BKN070 BKN100
     FM311600 31006KT P6SM SCT060 BKN100
     FM312000 35010KT P6SM SCT060 BKN080
     FM312200 03008KT P6SM VCSH SCT040 BKN060
      TEMPO 3122/0101 6SM -SHRASN
     FM010400 02014G20KT P6SM VCSH SCT020 BKN040
     FM010600 02012KT 4SM -SHSN SCT008 BKN020 OVC040
      TEMPO 0106/0110 3/4SM -SHSN VV008=



000
FTUS45 KBOU 310906 AAB
TAFDEN
TAF AMD
KDEN 310906Z 3109/0112 34007KT P6SM SCT070 OVC110
     FM311200 29006KT P6SM SCT060 BKN070 BKN100
     FM311600 31006KT P6SM SCT060 BKN100
     FM312000 35010KT P6SM SCT060 BKN080
     FM312200 03008KT P6SM VCSH SCT040 BKN060
      TEMPO 3122/0101 6SM -SHRASN
     FM010400 02014G20KT P6SM VCSH SCT020 BKN040
     FM010600 02012KT 4SM -SHSN SCT008 BKN020 OVC040
      TEMPO 0106/0110 3/4SM -SHSN VV008=



000
FTUS45 KBOU 310700 AAA
TAFDEN
TAF AMD
KDEN 310700Z 3107/0112 34007KT P6SM SCT070 BKN090 OVC110
     FM310800 33006KT P6SM SCT050 BKN070 OVC110
     FM311200 29006KT P6SM VCSH SCT045 BKN060 BKN100
      TEMPO 3112/3116 BKN040
     FM311600 31006KT P6SM SCT050 BKN070
     FM312000 35010KT P6SM BKN045 BKN060
     FM312200 03008KT P6SM VCSH SCT030 BKN040 OVC060
      TEMPO 3123/0103 4SM -SHRASN OVC030=



000
FTUS45 KBOU 310700 AAA
TAFDEN
TAF AMD
KDEN 310700Z 3107/0112 34007KT P6SM SCT070 BKN090 OVC110
     FM310800 33006KT P6SM SCT050 BKN070 OVC110
     FM311200 29006KT P6SM VCSH SCT045 BKN060 BKN100
      TEMPO 3112/3116 BKN040
     FM311600 31006KT P6SM SCT050 BKN070
     FM312000 35010KT P6SM BKN045 BKN060
     FM312200 03008KT P6SM VCSH SCT030 BKN040 OVC060
      TEMPO 3123/0103 4SM -SHRASN OVC030=



000
FTUS45 KBOU 310700 AAA
TAFBJC
TAF AMD
KBJC 310700Z 3107/0106 34006KT P6SM BKN080
     FM311200 30006KT P6SM VCSH SCT050 BKN070
     FM311600 VRB04KT P6SM SCT050 BKN070
     FM312000 34010KT P6SM VCSH SCT040 BKN060
     FM312200 01008KT P6SM -SHRASN SCT028 BKN035 OVC050
      TEMPO 3123/0103 3SM -SHSN OVC025=



000
FTUS45 KBOU 310700 AAA
TAFAPA
TAF AMD
KAPA 310700Z 3107/0106 35006KT P6SM BKN080 OVC100
     FM311000 32006KT P6SM BKN060 OVC080
     FM311200 30006KT P6SM VCSH SCT040 BKN060 OVC080
     FM311600 VRB04KT P6SM SCT050 BKN070
     FM312000 35010KT P6SM VCSH SCT040 BKN060
     FM312200 02008KT P6SM -SHRASN SCT028 BKN035 OVC050
      TEMPO 3123/0103 3SM -SHSN OVC025=



000
FTUS45 KBOU 310700 AAA
TAFBJC
TAF AMD
KBJC 310700Z 3107/0106 34006KT P6SM BKN080
     FM311200 30006KT P6SM VCSH SCT050 BKN070
     FM311600 VRB04KT P6SM SCT050 BKN070
     FM312000 34010KT P6SM VCSH SCT040 BKN060
     FM312200 01008KT P6SM -SHRASN SCT028 BKN035 OVC050
      TEMPO 3123/0103 3SM -SHSN OVC025=



000
FTUS45 KBOU 310700 AAA
TAFAPA
TAF AMD
KAPA 310700Z 3107/0106 35006KT P6SM BKN080 OVC100
     FM311000 32006KT P6SM BKN060 OVC080
     FM311200 30006KT P6SM VCSH SCT040 BKN060 OVC080
     FM311600 VRB04KT P6SM SCT050 BKN070
     FM312000 35010KT P6SM VCSH SCT040 BKN060
     FM312200 02008KT P6SM -SHRASN SCT028 BKN035 OVC050
      TEMPO 3123/0103 3SM -SHSN OVC025=



000
FTUS45 KBOU 310537
TAFDEN
TAF
KDEN 310537Z 3106/0112 33007KT P6SM SCT070 BKN090 OVC200
     FM310800 35007KT P6SM VCSH SCT050 BKN070 OVC090
      TEMPO 3108/3111 -SHSN BKN035 OVC050
     FM311200 29006KT P6SM VCSH SCT045 BKN060 BKN100
      TEMPO 3112/3116 BKN040
     FM311600 31006KT P6SM SCT050 BKN070
     FM312000 35010KT P6SM BKN045 BKN060
     FM312200 03008KT P6SM VCSH SCT030 BKN040 OVC060
      TEMPO 3123/0103 4SM -SHRASN OVC030=



000
FTUS45 KBOU 310537
TAFAPA
TAF
KAPA 310537Z 3106/0106 33006KT P6SM VCSH SCT050 BKN080
     FM310700 35006KT P6SM VCSH SCT030 BKN040 OVC070
      TEMPO 3108/3111 3SM -SN BR BKN020 OVC040
     FM311200 30006KT P6SM VCSH SCT035 BKN050
     FM311600 VRB04KT P6SM SCT050 BKN070
     FM312000 35010KT P6SM VCSH SCT040 BKN060
     FM312200 02008KT P6SM -SHRASN SCT028 BKN035 OVC050
      TEMPO 3123/0103 3SM -SHSN OVC025=



000
FTUS45 KBOU 310537
TAFBJC
TAF
KBJC 310537Z 3106/0106 34006KT P6SM SCT050 BKN080
     FM310700 35006KT P6SM VCSH SCT028 BKN040 OVC070
      TEMPO 3108/3111 3SM -SN BR BKN020 OVC040
     FM311200 30006KT P6SM VCSH SCT035 BKN050
     FM311600 VRB04KT P6SM SCT050 BKN070
     FM312000 34010KT P6SM VCSH SCT040 BKN060
     FM312200 01008KT P6SM -SHRASN SCT028 BKN035 OVC050
      TEMPO 3123/0103 3SM -SHSN OVC025=



000
FTUS45 KBOU 310537
TAFDEN
TAF
KDEN 310537Z 3106/0112 33007KT P6SM SCT070 BKN090 OVC200
     FM310800 35007KT P6SM VCSH SCT050 BKN070 OVC090
      TEMPO 3108/3111 -SHSN BKN035 OVC050
     FM311200 29006KT P6SM VCSH SCT045 BKN060 BKN100
      TEMPO 3112/3116 BKN040
     FM311600 31006KT P6SM SCT050 BKN070
     FM312000 35010KT P6SM BKN045 BKN060
     FM312200 03008KT P6SM VCSH SCT030 BKN040 OVC060
      TEMPO 3123/0103 4SM -SHRASN OVC030=



000
FTUS45 KBOU 310537
TAFBJC
TAF
KBJC 310537Z 3106/0106 34006KT P6SM SCT050 BKN080
     FM310700 35006KT P6SM VCSH SCT028 BKN040 OVC070
      TEMPO 3108/3111 3SM -SN BR BKN020 OVC040
     FM311200 30006KT P6SM VCSH SCT035 BKN050
     FM311600 VRB04KT P6SM SCT050 BKN070
     FM312000 34010KT P6SM VCSH SCT040 BKN060
     FM312200 01008KT P6SM -SHRASN SCT028 BKN035 OVC050
      TEMPO 3123/0103 3SM -SHSN OVC025=



000
FTUS45 KBOU 310537
TAFAPA
TAF
KAPA 310537Z 3106/0106 33006KT P6SM VCSH SCT050 BKN080
     FM310700 35006KT P6SM VCSH SCT030 BKN040 OVC070
      TEMPO 3108/3111 3SM -SN BR BKN020 OVC040
     FM311200 30006KT P6SM VCSH SCT035 BKN050
     FM311600 VRB04KT P6SM SCT050 BKN070
     FM312000 35010KT P6SM VCSH SCT040 BKN060
     FM312200 02008KT P6SM -SHRASN SCT028 BKN035 OVC050
      TEMPO 3123/0103 3SM -SHSN OVC025=



000
FTUS45 KBOU 310430 AAB
TAFDEN
TAF AMD
KDEN 310430Z 3105/0106 33007KT P6SM BKN070 OVC090
     FM310600 35007KT P6SM VCSH SCT045 BKN060 OVC080
      TEMPO 3107/3111 5SM -SN BR BKN025 OVC040
     FM311200 29006KT P6SM VCSH SCT030 BKN040 OVC060
      TEMPO 3112/3116 BKN030
     FM311600 31006KT P6SM SCT050 BKN070
     FM312000 36010KT P6SM VCSH BKN045 BKN060=



000
FTUS45 KBOU 310430 AAB
TAFDEN
TAF AMD
KDEN 310430Z 3105/0106 33007KT P6SM BKN070 OVC090
     FM310600 35007KT P6SM VCSH SCT045 BKN060 OVC080
      TEMPO 3107/3111 5SM -SN BR BKN025 OVC040
     FM311200 29006KT P6SM VCSH SCT030 BKN040 OVC060
      TEMPO 3112/3116 BKN030
     FM311600 31006KT P6SM SCT050 BKN070
     FM312000 36010KT P6SM VCSH BKN045 BKN060=



000
FTUS45 KBOU 310309 AAA
TAFDEN
TAF AMD
KDEN 310309Z 3103/0106 32007KT P6SM BKN080 OVC100
     FM310500 35007KT P6SM VCSH SCT040 BKN060 OVC080
      TEMPO 3106/3110 5SM -SN BR BKN025 OVC040
     FM311200 28006KT P6SM VCSH SCT025 BKN035 OVC060
      TEMPO 3112/3115 BKN025
     FM311600 30006KT P6SM SCT040 BKN070
     FM311900 36005KT P6SM SCT050 BKN070=



000
FTUS45 KBOU 310309 AAA
TAFDEN
TAF AMD
KDEN 310309Z 3103/0106 32007KT P6SM BKN080 OVC100
     FM310500 35007KT P6SM VCSH SCT040 BKN060 OVC080
      TEMPO 3106/3110 5SM -SN BR BKN025 OVC040
     FM311200 28006KT P6SM VCSH SCT025 BKN035 OVC060
      TEMPO 3112/3115 BKN025
     FM311600 30006KT P6SM SCT040 BKN070
     FM311900 36005KT P6SM SCT050 BKN070=



000
FTUS45 KBOU 302340
TAFBJC
TAF
KBJC 302340Z 3100/3124 04006KT P6SM SCT060 BKN160
     FM310300 02006KT P6SM VCSH SCT040 BKN060
     FM310600 36006KT P6SM VCSH SCT020 BKN030
      TEMPO 3107/3111 3SM -SN BR BKN020
     FM311200 34006KT P6SM VCSH SCT020 BKN030
      TEMPO 3112/3115 BKN020
     FM311600 34004KT P6SM SCT040 BKN070=



000
FTUS45 KBOU 302340
TAFAPA
TAF
KAPA 302340Z 3100/3124 02006KT P6SM SCT070 BKN100
     FM310300 02006KT P6SM VCSH SCT050 BKN080
     FM310600 02006KT P6SM VCSH SCT020 BKN030
      TEMPO 3107/3111 3SM -SN BR BKN020
     FM311200 32006KT P6SM VCSH SCT020 BKN030
      TEMPO 3112/3115 BKN020
     FM311600 30006KT P6SM SCT040 BKN070=



000
FTUS45 KBOU 302340
TAFDEN
TAF
KDEN 302340Z 3100/0106 01006KT P6SM SCT050 BKN080
     FM310400 33007KT P6SM VCSH BKN030 OVC050
      TEMPO 3107/3111 5SM -SN BR BKN020 OVC035
     FM311200 29006KT P6SM VCSH SCT020 BKN030
      TEMPO 3112/3115 BKN020
     FM311600 34006KT P6SM SCT040 BKN070
     FM311900 36005KT P6SM SCT050 BKN070=



000
FTUS45 KBOU 302340
TAFDEN
TAF
KDEN 302340Z 3100/0106 01006KT P6SM SCT050 BKN080
     FM310400 33007KT P6SM VCSH BKN030 OVC050
      TEMPO 3107/3111 5SM -SN BR BKN020 OVC035
     FM311200 29006KT P6SM VCSH SCT020 BKN030
      TEMPO 3112/3115 BKN020
     FM311600 34006KT P6SM SCT040 BKN070
     FM311900 36005KT P6SM SCT050 BKN070=



000
FTUS45 KBOU 302340
TAFBJC
TAF
KBJC 302340Z 3100/3124 04006KT P6SM SCT060 BKN160
     FM310300 02006KT P6SM VCSH SCT040 BKN060
     FM310600 36006KT P6SM VCSH SCT020 BKN030
      TEMPO 3107/3111 3SM -SN BR BKN020
     FM311200 34006KT P6SM VCSH SCT020 BKN030
      TEMPO 3112/3115 BKN020
     FM311600 34004KT P6SM SCT040 BKN070=



000
FTUS45 KBOU 302340
TAFAPA
TAF
KAPA 302340Z 3100/3124 02006KT P6SM SCT070 BKN100
     FM310300 02006KT P6SM VCSH SCT050 BKN080
     FM310600 02006KT P6SM VCSH SCT020 BKN030
      TEMPO 3107/3111 3SM -SN BR BKN020
     FM311200 32006KT P6SM VCSH SCT020 BKN030
      TEMPO 3112/3115 BKN020
     FM311600 30006KT P6SM SCT040 BKN070=



000
FTUS45 KBOU 302101 AAA
TAFDEN
TAF AMD
KDEN 302101Z 3021/3124 32005KT P6SM SCT070 BKN100
     FM310000 36007KT P6SM VCSH SCT050 BKN080
     FM310600 33007KT P6SM VCSH BKN030 OVC050
      TEMPO 3107/3111 5SM -SN BR BKN020 OVC035
     FM311200 29006KT P6SM VCSH SCT020 BKN030
      TEMPO 3112/3115 BKN020
     FM311600 34006KT P6SM SCT040 BKN070=



000
FTUS45 KBOU 302101 AAA
TAFDEN
TAF AMD
KDEN 302101Z 3021/3124 32005KT P6SM SCT070 BKN100
     FM310000 36007KT P6SM VCSH SCT050 BKN080
     FM310600 33007KT P6SM VCSH BKN030 OVC050
      TEMPO 3107/3111 5SM -SN BR BKN020 OVC035
     FM311200 29006KT P6SM VCSH SCT020 BKN030
      TEMPO 3112/3115 BKN020
     FM311600 34006KT P6SM SCT040 BKN070=



000
FTUS45 KBOU 301752
TAFBJC
TAF
KBJC 301752Z 3018/3118 01004KT P6SM SCT080 BKN140
     FM302100 04006KT P6SM SCT060 BKN160
     FM310300 02006KT P6SM VCSH SCT040 BKN060
     FM310600 36006KT P6SM VCSH SCT020 BKN030
      TEMPO 3107/3111 3SM -SN BR BKN020
     FM311200 34006KT P6SM VCSH SCT020 BKN030
      TEMPO 3112/3115 BKN020
     FM311600 34004KT P6SM SCT040 BKN070=



000
FTUS45 KBOU 301752
TAFAPA
TAF
KAPA 301752Z 3018/3118 34004KT P6SM SCT100 BKN140
     FM302100 02006KT P6SM SCT070 BKN100
     FM310300 02006KT P6SM VCSH SCT050 BKN080
     FM310600 02006KT P6SM VCSH SCT020 BKN030
      TEMPO 3107/3111 3SM -SN BR BKN020
     FM311200 32006KT P6SM VCSH SCT020 BKN030
      TEMPO 3112/3115 BKN020
     FM311600 30006KT P6SM SCT040 BKN070=



000
FTUS45 KBOU 301752
TAFBJC
TAF
KBJC 301752Z 3018/3118 01004KT P6SM SCT080 BKN140
     FM302100 04006KT P6SM SCT060 BKN160
     FM310300 02006KT P6SM VCSH SCT040 BKN060
     FM310600 36006KT P6SM VCSH SCT020 BKN030
      TEMPO 3107/3111 3SM -SN BR BKN020
     FM311200 34006KT P6SM VCSH SCT020 BKN030
      TEMPO 3112/3115 BKN020
     FM311600 34004KT P6SM SCT040 BKN070=



000
FTUS45 KBOU 301752
TAFAPA
TAF
KAPA 301752Z 3018/3118 34004KT P6SM SCT100 BKN140
     FM302100 02006KT P6SM SCT070 BKN100
     FM310300 02006KT P6SM VCSH SCT050 BKN080
     FM310600 02006KT P6SM VCSH SCT020 BKN030
      TEMPO 3107/3111 3SM -SN BR BKN020
     FM311200 32006KT P6SM VCSH SCT020 BKN030
      TEMPO 3112/3115 BKN020
     FM311600 30006KT P6SM SCT040 BKN070=



000
FTUS45 KBOU 301744
TAFDEN
TAF
KDEN 301744Z 3018/3124 34006KT P6SM SCT100 BKN140
     FM302000 02006KT P6SM SCT070 BKN100
     FM310300 34007KT P6SM VCSH SCT050 BKN080
     FM310600 33007KT P6SM VCSH BKN030 OVC050
      TEMPO 3107/3111 5SM -SN BR BKN020 OVC035
     FM311200 29006KT P6SM VCSH SCT020 BKN030
      TEMPO 3112/3115 BKN020
     FM311600 34006KT P6SM SCT040 BKN070=



000
FTUS45 KBOU 301744
TAFDEN
TAF
KDEN 301744Z 3018/3124 34006KT P6SM SCT100 BKN140
     FM302000 02006KT P6SM SCT070 BKN100
     FM310300 34007KT P6SM VCSH SCT050 BKN080
     FM310600 33007KT P6SM VCSH BKN030 OVC050
      TEMPO 3107/3111 5SM -SN BR BKN020 OVC035
     FM311200 29006KT P6SM VCSH SCT020 BKN030
      TEMPO 3112/3115 BKN020
     FM311600 34006KT P6SM SCT040 BKN070=



000
FTUS45 KBOU 301508 AAA
TAFBJC
TAF AMD
KBJC 301508Z 3015/3112 VRB04KT P6SM SCT090 BKN120
     FM301800 04006KT P6SM SCT080 BKN120
     FM302100 08006KT P6SM SCT070 BKN120
     FM310300 02006KT P6SM VCSH SCT050 BKN070
     FM310600 36006KT P6SM VCSH SCT020 BKN030
      TEMPO 3107/3111 3SM -SN BR BKN020=



000
FTUS45 KBOU 301508 AAA
TAFDEN
TAF AMD
KDEN 301508Z 3015/3118 26006KT P6SM FEW100 BKN140
     FM301700 34006KT P6SM SCT100 BKN140
     FM302000 02006KT P6SM SCT070 BKN100
     FM310300 34006KT P6SM VCSH SCT050 BKN080
     FM310600 33007KT P6SM VCSH BKN030 OVC050
      TEMPO 3107/3111 5SM -SN BR BKN020 OVC035
     FM311200 31006KT P6SM VCSH SCT020 BKN030
      TEMPO 3112/3116 BKN020=



000
FTUS45 KBOU 301508 AAA
TAFDEN
TAF AMD
KDEN 301508Z 3015/3118 26006KT P6SM FEW100 BKN140
     FM301700 34006KT P6SM SCT100 BKN140
     FM302000 02006KT P6SM SCT070 BKN100
     FM310300 34006KT P6SM VCSH SCT050 BKN080
     FM310600 33007KT P6SM VCSH BKN030 OVC050
      TEMPO 3107/3111 5SM -SN BR BKN020 OVC035
     FM311200 31006KT P6SM VCSH SCT020 BKN030
      TEMPO 3112/3116 BKN020=



000
FTUS45 KBOU 301508 AAA
TAFBJC
TAF AMD
KBJC 301508Z 3015/3112 VRB04KT P6SM SCT090 BKN120
     FM301800 04006KT P6SM SCT080 BKN120
     FM302100 08006KT P6SM SCT070 BKN120
     FM310300 02006KT P6SM VCSH SCT050 BKN070
     FM310600 36006KT P6SM VCSH SCT020 BKN030
      TEMPO 3107/3111 3SM -SN BR BKN020=



000
FTUS45 KBOU 301120
TAFBJC
TAF
KBJC 301120Z 3012/3112 34006KT P6SM SCT100 BKN140
     FM301800 04006KT P6SM SCT080 BKN120
     FM302100 08006KT P6SM SCT070 BKN120
     FM310300 02006KT P6SM VCSH SCT050 BKN070
     FM310600 36006KT P6SM VCSH SCT020 BKN030
      TEMPO 3107/3111 3SM -SN BR BKN020=



000
FTUS45 KBOU 301120
TAFAPA
TAF
KAPA 301120Z 3012/3112 VRB05KT P6SM SCT100 BKN140
     FM301500 21006KT P6SM SCT100 BKN140
     FM301800 34006KT P6SM SCT100 BKN140
     FM302100 02006KT P6SM SCT070 BKN100
     FM310300 04006KT P6SM VCSH SCT050 BKN080
     FM310600 04006KT P6SM VCSH SCT020 BKN030
      TEMPO 3107/3111 3SM -SN BR BKN020=



000
FTUS45 KBOU 301120
TAFDEN
TAF
KDEN 301120Z 3012/3118 28007KT P6SM BKN140
     FM301700 34007KT P6SM SCT100 BKN140
     FM302000 02006KT P6SM SCT070 BKN100
     FM310300 34006KT P6SM VCSH SCT050 BKN080
     FM310600 33007KT P6SM VCSH BKN030 OVC050
      TEMPO 3107/3111 5SM -SN BR BKN020 OVC035
     FM311200 31006KT P6SM VCSH SCT020 BKN030
      TEMPO 3112/3116 BKN020=



000
FTUS45 KBOU 301120
TAFAPA
TAF
KAPA 301120Z 3012/3112 VRB05KT P6SM SCT100 BKN140
     FM301500 21006KT P6SM SCT100 BKN140
     FM301800 34006KT P6SM SCT100 BKN140
     FM302100 02006KT P6SM SCT070 BKN100
     FM310300 04006KT P6SM VCSH SCT050 BKN080
     FM310600 04006KT P6SM VCSH SCT020 BKN030
      TEMPO 3107/3111 3SM -SN BR BKN020=



000
FTUS45 KBOU 301120
TAFBJC
TAF
KBJC 301120Z 3012/3112 34006KT P6SM SCT100 BKN140
     FM301800 04006KT P6SM SCT080 BKN120
     FM302100 08006KT P6SM SCT070 BKN120
     FM310300 02006KT P6SM VCSH SCT050 BKN070
     FM310600 36006KT P6SM VCSH SCT020 BKN030
      TEMPO 3107/3111 3SM -SN BR BKN020=



000
FTUS45 KBOU 301120
TAFDEN
TAF
KDEN 301120Z 3012/3118 28007KT P6SM BKN140
     FM301700 34007KT P6SM SCT100 BKN140
     FM302000 02006KT P6SM SCT070 BKN100
     FM310300 34006KT P6SM VCSH SCT050 BKN080
     FM310600 33007KT P6SM VCSH BKN030 OVC050
      TEMPO 3107/3111 5SM -SN BR BKN020 OVC035
     FM311200 31006KT P6SM VCSH SCT020 BKN030
      TEMPO 3112/3116 BKN020=



000
FTUS45 KBOU 300802 AAA
TAFDEN
TAF AMD
KDEN 300802Z 3008/3112 22008KT P6SM FEW140 BKN200
     FM301300 VRB05KT P6SM FEW080 BKN120
     FM301600 25007KT P6SM FEW060 BKN080 OVC120
     FM302000 34006KT P6SM SCT050 BKN070 OVC100
     FM310200 01007KT P6SM VCSH SCT030 BKN045 OVC060
      TEMPO 3103/3106 BKN025 OVC040
     FM310600 33008KT P6SM VCSH BKN025 OVC040
      TEMPO 3107/3111 3SM -SN BR BKN012 OVC025=



000
FTUS45 KBOU 300802 AAA
TAFDEN
TAF AMD
KDEN 300802Z 3008/3112 22008KT P6SM FEW140 BKN200
     FM301300 VRB05KT P6SM FEW080 BKN120
     FM301600 25007KT P6SM FEW060 BKN080 OVC120
     FM302000 34006KT P6SM SCT050 BKN070 OVC100
     FM310200 01007KT P6SM VCSH SCT030 BKN045 OVC060
      TEMPO 3103/3106 BKN025 OVC040
     FM310600 33008KT P6SM VCSH BKN025 OVC040
      TEMPO 3107/3111 3SM -SN BR BKN012 OVC025=



000
FTUS45 KBOU 300540
TAFBJC
TAF
KBJC 300540Z 3006/3106 VRB04KT P6SM FEW120 BKN200
     FM301000 22006KT P6SM SCT120 BKN200
     FM301600 26007KT P6SM FEW060 SCT080 BKN120
     FM302000 34007KT P6SM SCT050 BKN070 OVC100
     FM310200 02006KT P6SM VCSH SCT030 BKN040 OVC060
      TEMPO 3103/3106 -SHSN BKN020 OVC030=



000
FTUS45 KBOU 300540
TAFDEN
TAF
KDEN 300540Z 3006/3112 18011KT P6SM BKN200
     FM300900 22008KT P6SM FEW140 BKN200
     FM301300 VRB05KT P6SM FEW080 BKN120
     FM301600 25007KT P6SM FEW060 BKN080 OVC120
     FM302000 34006KT P6SM SCT050 BKN070 OVC100
     FM310200 01007KT P6SM VCSH SCT030 BKN045 OVC060
      TEMPO 3103/3106 BKN025 OVC040
     FM310600 33008KT P6SM VCSH BKN025 OVC040
      TEMPO 3107/3111 3SM -SN BR BKN012 OVC025=



000
FTUS45 KBOU 300540
TAFDEN
TAF
KDEN 300540Z 3006/3112 18011KT P6SM BKN200
     FM300900 22008KT P6SM FEW140 BKN200
     FM301300 VRB05KT P6SM FEW080 BKN120
     FM301600 25007KT P6SM FEW060 BKN080 OVC120
     FM302000 34006KT P6SM SCT050 BKN070 OVC100
     FM310200 01007KT P6SM VCSH SCT030 BKN045 OVC060
      TEMPO 3103/3106 BKN025 OVC040
     FM310600 33008KT P6SM VCSH BKN025 OVC040
      TEMPO 3107/3111 3SM -SN BR BKN012 OVC025=



000
FTUS45 KBOU 300540
TAFAPA
TAF
KAPA 300540Z 3006/3106 17009KT P6SM BKN200
     FM300900 20006KT P6SM FEW140 BKN200
     FM301300 VRB04KT P6SM FEW080 BKN120
     FM301600 24007KT P6SM FEW060 BKN080 OVC110
     FM302000 35006KT P6SM SCT050 BKN070 OVC090
     FM310200 01007KT P6SM VCSH SCT030 BKN045 OVC060
      TEMPO 3103/3106 -SHSN BKN020 OVC035=



000
FTUS45 KBOU 300540
TAFBJC
TAF
KBJC 300540Z 3006/3106 VRB04KT P6SM FEW120 BKN200
     FM301000 22006KT P6SM SCT120 BKN200
     FM301600 26007KT P6SM FEW060 SCT080 BKN120
     FM302000 34007KT P6SM SCT050 BKN070 OVC100
     FM310200 02006KT P6SM VCSH SCT030 BKN040 OVC060
      TEMPO 3103/3106 -SHSN BKN020 OVC030=



000
FTUS45 KBOU 300540
TAFAPA
TAF
KAPA 300540Z 3006/3106 17009KT P6SM BKN200
     FM300900 20006KT P6SM FEW140 BKN200
     FM301300 VRB04KT P6SM FEW080 BKN120
     FM301600 24007KT P6SM FEW060 BKN080 OVC110
     FM302000 35006KT P6SM SCT050 BKN070 OVC090
     FM310200 01007KT P6SM VCSH SCT030 BKN045 OVC060
      TEMPO 3103/3106 -SHSN BKN020 OVC035=



000
FTUS45 KBOU 300243 AAA
TAFBJC
TAF AMD
KBJC 300243Z 3003/3024 16006KT P6SM FEW100 SCT150
     FM300700 VRB05KT P6SM FEW080 SCT100 BKN150
     FM301300 24006KT P6SM SCT070 BKN090 BKN120
     FM301600 28006KT P6SM SCT070 BKN090 BKN110
     FM302100 34008KT P6SM SCT060 BKN080 OVC100
      TEMPO 3022/3024 SCT045 BKN060=



000
FTUS45 KBOU 300243 AAA
TAFBJC
TAF AMD
KBJC 300243Z 3003/3024 16006KT P6SM FEW100 SCT150
     FM300700 VRB05KT P6SM FEW080 SCT100 BKN150
     FM301300 24006KT P6SM SCT070 BKN090 BKN120
     FM301600 28006KT P6SM SCT070 BKN090 BKN110
     FM302100 34008KT P6SM SCT060 BKN080 OVC100
      TEMPO 3022/3024 SCT045 BKN060=



000
FTUS45 KBOU 300238 AAA
TAFAPA
TAF AMD
KAPA 300238Z 3003/3024 17009KT P6SM FEW110 BKN200
     FM300700 20007KT P6SM FEW080 SCT100 BKN200
     FM301300 VRB05KT P6SM SCT070 BKN100 BKN120
     FM301600 24007KT P6SM SCT070 BKN090 BKN110
     FM302000 01006KT P6SM SCT060 BKN080 OVC100
      TEMPO 3022/3024 SCT045 BKN060=



000
FTUS45 KBOU 300238 AAA
TAFAPA
TAF AMD
KAPA 300238Z 3003/3024 17009KT P6SM FEW110 BKN200
     FM300700 20007KT P6SM FEW080 SCT100 BKN200
     FM301300 VRB05KT P6SM SCT070 BKN100 BKN120
     FM301600 24007KT P6SM SCT070 BKN090 BKN110
     FM302000 01006KT P6SM SCT060 BKN080 OVC100
      TEMPO 3022/3024 SCT045 BKN060=



000
FTUS45 KBOU 300233 AAA
TAFDEN
TAF AMD
KDEN 300233Z 3003/3106 14011KT P6SM FEW110 BKN220
     FM300400 17009KT P6SM FEW110 BKN220
     FM300700 21007KT P6SM FEW080 SCT120 BKN200
     FM301300 VRB05KT P6SM SCT070 BKN090 BKN120
     FM301600 25007KT P6SM SCT060 BKN080 OVC120
     FM302000 01006KT P6SM SCT080 BKN110 OVC150
     FM310200 34008KT P6SM VCSH SCT030 BKN045 OVC060
      TEMPO 3103/3106 BKN025 OVC035=



000
FTUS45 KBOU 300233 AAA
TAFDEN
TAF AMD
KDEN 300233Z 3003/3106 14011KT P6SM FEW110 BKN220
     FM300400 17009KT P6SM FEW110 BKN220
     FM300700 21007KT P6SM FEW080 SCT120 BKN200
     FM301300 VRB05KT P6SM SCT070 BKN090 BKN120
     FM301600 25007KT P6SM SCT060 BKN080 OVC120
     FM302000 01006KT P6SM SCT080 BKN110 OVC150
     FM310200 34008KT P6SM VCSH SCT030 BKN045 OVC060
      TEMPO 3103/3106 BKN025 OVC035=



000
FTUS45 KBOU 292323
TAFBJC
TAF
KBJC 292323Z 3000/3024 16005KT P6SM FEW040 SCT070
     FM300400 30004KT P6SM FEW080 BKN220
     FM301300 VRB05KT P6SM SCT070 BKN150
     FM301700 03007KT P6SM SCT060 OVC140=



000
FTUS45 KBOU 292323
TAFDEN
TAF
KDEN 292323Z 3000/3106 15007KT P6SM FEW080 BKN220
     FM300200 19007KT P6SM FEW080 BKN200
     FM300400 21007KT P6SM FEW080 BKN220
     FM301300 VRB05KT P6SM SCT070 BKN150
     FM301700 04008KT P6SM SCT060 OVC140
     FM310000 36005KT P6SM SCT080 BKN140=



000
FTUS45 KBOU 292323
TAFAPA
TAF
KAPA 292323Z 3000/3024 14007KT P6SM FEW040 BKN200
     FM300400 19008KT P6SM FEW080 BKN220
     FM301300 VRB05KT P6SM SCT070 BKN150
     FM301700 04008KT P6SM SCT060 OVC140=



000
FTUS45 KBOU 292323
TAFAPA
TAF
KAPA 292323Z 3000/3024 14007KT P6SM FEW040 BKN200
     FM300400 19008KT P6SM FEW080 BKN220
     FM301300 VRB05KT P6SM SCT070 BKN150
     FM301700 04008KT P6SM SCT060 OVC140=



000
FTUS45 KBOU 292323
TAFBJC
TAF
KBJC 292323Z 3000/3024 16005KT P6SM FEW040 SCT070
     FM300400 30004KT P6SM FEW080 BKN220
     FM301300 VRB05KT P6SM SCT070 BKN150
     FM301700 03007KT P6SM SCT060 OVC140=



000
FTUS45 KBOU 292323
TAFDEN
TAF
KDEN 292323Z 3000/3106 15007KT P6SM FEW080 BKN220
     FM300200 19007KT P6SM FEW080 BKN200
     FM300400 21007KT P6SM FEW080 BKN220
     FM301300 VRB05KT P6SM SCT070 BKN150
     FM301700 04008KT P6SM SCT060 OVC140
     FM310000 36005KT P6SM SCT080 BKN140=



000
FTUS45 KBOU 292201 AAC
TAFDEN
TAF AMD
KDEN 292201Z 2922/3024 15007KT P6SM FEW070 SCT220
     FM300000 18007KT P6SM FEW080 BKN220
     FM300400 21008KT P6SM FEW080 BKN220
     FM301300 VRB05KT P6SM SCT070 BKN150
     FM301700 04008KT P6SM SCT060 OVC140=



000
FTUS45 KBOU 292201 AAC
TAFDEN
TAF AMD
KDEN 292201Z 2922/3024 15007KT P6SM FEW070 SCT220
     FM300000 18007KT P6SM FEW080 BKN220
     FM300400 21008KT P6SM FEW080 BKN220
     FM301300 VRB05KT P6SM SCT070 BKN150
     FM301700 04008KT P6SM SCT060 OVC140=



000
FTUS45 KBOU 292101 AAB
TAFDEN
TAF AMD
KDEN 292101Z 2921/3024 14005KT P6SM FEW070 SCT220
     FM300400 21008KT P6SM FEW080 BKN220
     FM301300 VRB05KT P6SM SCT070 BKN150
     FM301700 04008KT P6SM SCT060 OVC140=



000
FTUS45 KBOU 292101 AAB
TAFDEN
TAF AMD
KDEN 292101Z 2921/3024 14005KT P6SM FEW070 SCT220
     FM300400 21008KT P6SM FEW080 BKN220
     FM301300 VRB05KT P6SM SCT070 BKN150
     FM301700 04008KT P6SM SCT060 OVC140=



000
FTUS45 KBOU 291904 AAA
TAFDEN
TAF AMD
KDEN 291904Z 2919/3024 16004KT P6SM FEW050 SCT080 BKN220
     FM292100 VRB04KT P6SM FEW070 SCT220
     FM300400 21008KT P6SM FEW080 BKN220
     FM301300 VRB05KT P6SM SCT070 BKN150
     FM301700 04008KT P6SM SCT060 OVC140=



000
FTUS45 KBOU 291904 AAA
TAFDEN
TAF AMD
KDEN 291904Z 2919/3024 16004KT P6SM FEW050 SCT080 BKN220
     FM292100 VRB04KT P6SM FEW070 SCT220
     FM300400 21008KT P6SM FEW080 BKN220
     FM301300 VRB05KT P6SM SCT070 BKN150
     FM301700 04008KT P6SM SCT060 OVC140=



000
FTUS45 KBOU 291734
TAFBJC
TAF
KBJC 291734Z 2918/3018 VRB04KT P6SM SCT050 OVC150
     FM292000 10004KT P6SM FEW040 SCT070
     FM300400 30004KT P6SM FEW080 BKN220
     FM301300 VRB05KT P6SM SCT070 BKN150
     FM301700 03007KT P6SM SCT060 OVC140=



000
FTUS45 KBOU 291734
TAFAPA
TAF
KAPA 291734Z 2918/3018 10004KT P6SM OVC045
     FM292000 14007KT P6SM FEW040 SCT070
     FM300400 19008KT P6SM FEW080 BKN220
     FM301300 VRB05KT P6SM SCT070 BKN150
     FM301700 04008KT P6SM SCT060 OVC140=



000
FTUS45 KBOU 291734
TAFDEN
TAF
KDEN 291734Z 2918/3024 10004KT P6SM OVC050
     FM292000 14007KT P6SM FEW040 SCT070
     FM300400 21009KT P6SM FEW080 BKN220
     FM301300 VRB05KT P6SM SCT070 BKN150
     FM301700 04008KT P6SM SCT060 OVC140=



000
FTUS45 KBOU 291734
TAFBJC
TAF
KBJC 291734Z 2918/3018 VRB04KT P6SM SCT050 OVC150
     FM292000 10004KT P6SM FEW040 SCT070
     FM300400 30004KT P6SM FEW080 BKN220
     FM301300 VRB05KT P6SM SCT070 BKN150
     FM301700 03007KT P6SM SCT060 OVC140=



000
FTUS45 KBOU 291734
TAFDEN
TAF
KDEN 291734Z 2918/3024 10004KT P6SM OVC050
     FM292000 14007KT P6SM FEW040 SCT070
     FM300400 21009KT P6SM FEW080 BKN220
     FM301300 VRB05KT P6SM SCT070 BKN150
     FM301700 04008KT P6SM SCT060 OVC140=



000
FTUS45 KBOU 291734
TAFAPA
TAF
KAPA 291734Z 2918/3018 10004KT P6SM OVC045
     FM292000 14007KT P6SM FEW040 SCT070
     FM300400 19008KT P6SM FEW080 BKN220
     FM301300 VRB05KT P6SM SCT070 BKN150
     FM301700 04008KT P6SM SCT060 OVC140=



000
FTUS45 KBOU 291616 AAA
TAFAPA
TAF AMD
KAPA 291616Z 2916/3012 05006KT P6SM SCT035 BKN050
     FM291700 10006KT P6SM SCT040 BKN070
     FM292200 13010KT P6SM SCT040 SCT070
     FM300100 16010KT P6SM FEW080 BKN200
     FM300600 19010KT P6SM SCT080 BKN140=



000
FTUS45 KBOU 291616 AAA
TAFBJC
TAF AMD
KBJC 291616Z 2916/3012 VRB04KT P6SM SCT035 BKN050
     FM291700 12006KT P6SM SCT040 BKN070
     FM292300 15007KT P6SM SCT040 SCT070
     FM300100 19007KT P6SM FEW080 BKN200
     FM300600 25006KT P6SM SCT080 BKN140=



000
FTUS45 KBOU 291616 AAC
TAFDEN
TAF AMD
KDEN 291616Z 2916/3018 05007KT P6SM OVC050
     FM291800 10006KT P6SM SCT040 BKN070
     FM292100 13008KT P6SM FEW040 SCT070
     FM300100 16010KT P6SM FEW080 BKN200
     FM300800 21010KT P6SM SCT080 BKN140
     FM301400 24006KT P6SM SCT080 BKN140=



000
FTUS45 KBOU 291616 AAC
TAFDEN
TAF AMD
KDEN 291616Z 2916/3018 05007KT P6SM OVC050
     FM291800 10006KT P6SM SCT040 BKN070
     FM292100 13008KT P6SM FEW040 SCT070
     FM300100 16010KT P6SM FEW080 BKN200
     FM300800 21010KT P6SM SCT080 BKN140
     FM301400 24006KT P6SM SCT080 BKN140=



000
FTUS45 KBOU 291616 AAA
TAFBJC
TAF AMD
KBJC 291616Z 2916/3012 VRB04KT P6SM SCT035 BKN050
     FM291700 12006KT P6SM SCT040 BKN070
     FM292300 15007KT P6SM SCT040 SCT070
     FM300100 19007KT P6SM FEW080 BKN200
     FM300600 25006KT P6SM SCT080 BKN140=



000
FTUS45 KBOU 291616 AAA
TAFAPA
TAF AMD
KAPA 291616Z 2916/3012 05006KT P6SM SCT035 BKN050
     FM291700 10006KT P6SM SCT040 BKN070
     FM292200 13010KT P6SM SCT040 SCT070
     FM300100 16010KT P6SM FEW080 BKN200
     FM300600 19010KT P6SM SCT080 BKN140=



000
FTUS45 KBOU 291503 AAB
TAFDEN
TAF AMD
KDEN 291503Z 2915/3018 03006KT P6SM OVC050
     FM291600 24006KT P6SM SCT040 BKN060
     FM291800 10006KT P6SM SCT040 BKN070
     FM292100 13008KT P6SM FEW040 SCT070
     FM300100 16010KT P6SM FEW080 BKN200
     FM300800 21010KT P6SM SCT080 BKN140
     FM301400 24006KT P6SM SCT080 BKN140=



000
FTUS45 KBOU 291503 AAB
TAFDEN
TAF AMD
KDEN 291503Z 2915/3018 03006KT P6SM OVC050
     FM291600 24006KT P6SM SCT040 BKN060
     FM291800 10006KT P6SM SCT040 BKN070
     FM292100 13008KT P6SM FEW040 SCT070
     FM300100 16010KT P6SM FEW080 BKN200
     FM300800 21010KT P6SM SCT080 BKN140
     FM301400 24006KT P6SM SCT080 BKN140=



000
FTUS45 KBOU 291350 AAA
TAFDEN
TAF AMD
KDEN 291350Z 2914/3018 36008KT P6SM SCT040 BKN050
     FM291600 24006KT P6SM SCT040 BKN060
     FM291800 10006KT P6SM SCT040 BKN070
     FM292100 13008KT P6SM FEW040 SCT070
     FM300100 16010KT P6SM FEW080 BKN200
     FM300800 21010KT P6SM SCT080 BKN140
     FM301400 24006KT P6SM SCT080 BKN140=



000
FTUS45 KBOU 291350 AAA
TAFDEN
TAF AMD
KDEN 291350Z 2914/3018 36008KT P6SM SCT040 BKN050
     FM291600 24006KT P6SM SCT040 BKN060
     FM291800 10006KT P6SM SCT040 BKN070
     FM292100 13008KT P6SM FEW040 SCT070
     FM300100 16010KT P6SM FEW080 BKN200
     FM300800 21010KT P6SM SCT080 BKN140
     FM301400 24006KT P6SM SCT080 BKN140=



000
FTUS45 KBOU 291120
TAFBJC
TAF
KBJC 291120Z 2912/3012 33006KT P6SM SCT035 BKN050
     FM291700 12006KT P6SM SCT040 BKN070
     FM292300 15007KT P6SM SCT040 SCT070
     FM300100 19007KT P6SM FEW080 BKN200
     FM300600 25006KT P6SM SCT080 BKN140=



000
FTUS45 KBOU 291120
TAFAPA
TAF
KAPA 291120Z 2912/3012 31006KT P6SM SCT035 BKN050
     FM291700 10006KT P6SM SCT040 BKN070
     FM292200 13010KT P6SM SCT040 SCT070
     FM300100 16010KT P6SM FEW080 BKN200
     FM300600 19010KT P6SM SCT080 BKN140=



000
FTUS45 KBOU 291120
TAFDEN
TAF
KDEN 291120Z 2912/3018 30007KT P6SM SCT040 BKN060
     FM291400 24006KT P6SM SCT040 BKN060
     FM291700 10006KT P6SM SCT040 BKN070
     FM292100 13008KT P6SM FEW040 SCT070
     FM300100 16010KT P6SM FEW080 BKN200
     FM300800 21010KT P6SM SCT080 BKN140
     FM301400 24006KT P6SM SCT080 BKN140=



000
FTUS45 KBOU 291120
TAFAPA
TAF
KAPA 291120Z 2912/3012 31006KT P6SM SCT035 BKN050
     FM291700 10006KT P6SM SCT040 BKN070
     FM292200 13010KT P6SM SCT040 SCT070
     FM300100 16010KT P6SM FEW080 BKN200
     FM300600 19010KT P6SM SCT080 BKN140=



000
FTUS45 KBOU 291120
TAFBJC
TAF
KBJC 291120Z 2912/3012 33006KT P6SM SCT035 BKN050
     FM291700 12006KT P6SM SCT040 BKN070
     FM292300 15007KT P6SM SCT040 SCT070
     FM300100 19007KT P6SM FEW080 BKN200
     FM300600 25006KT P6SM SCT080 BKN140=



000
FTUS45 KBOU 291120
TAFDEN
TAF
KDEN 291120Z 2912/3018 30007KT P6SM SCT040 BKN060
     FM291400 24006KT P6SM SCT040 BKN060
     FM291700 10006KT P6SM SCT040 BKN070
     FM292100 13008KT P6SM FEW040 SCT070
     FM300100 16010KT P6SM FEW080 BKN200
     FM300800 21010KT P6SM SCT080 BKN140
     FM301400 24006KT P6SM SCT080 BKN140=



000
FTUS45 KBOU 290858 AAC
TAFDEN
TAF AMD
KDEN 290858Z 2909/3012 27007KT P6SM SCT040 BKN060
     FM291200 24006KT P6SM SCT040 BKN060
     FM291700 12008KT P6SM SCT030 BKN070
     FM292300 14010KT P6SM SCT040 SCT080
     FM300100 19010KT P6SM FEW080 BKN200
     FM300800 22012KT P6SM SCT080 OVC140=



000
FTUS45 KBOU 290812 AAB
TAFBJC
TAF AMD
KBJC 290812Z 2908/3006 33006KT P6SM VCSH SCT025 OVC040
     FM291000 11006KT P6SM SCT025 OVC040
     FM291700 12008KT P6SM SCT030 BKN070
     FM292300 14010KT P6SM SCT040 SCT080
     FM300100 19010KT P6SM FEW080 BKN200=



000
FTUS45 KBOU 290731 AAB
TAFDEN
TAF AMD
KDEN 290731Z 2908/3012 27006KT P6SM BKN040
     FM291200 24006KT P6SM SCT030 BKN050
     FM291700 12008KT P6SM SCT030 BKN070
     FM292300 14010KT P6SM SCT040 SCT080
     FM300100 19010KT P6SM FEW080 BKN200
     FM300800 22012KT P6SM SCT080 OVC140=



000
FTUS45 KBOU 290731 AAB
TAFDEN
TAF AMD
KDEN 290731Z 2908/3012 27006KT P6SM BKN040
     FM291200 24006KT P6SM SCT030 BKN050
     FM291700 12008KT P6SM SCT030 BKN070
     FM292300 14010KT P6SM SCT040 SCT080
     FM300100 19010KT P6SM FEW080 BKN200
     FM300800 22012KT P6SM SCT080 OVC140=



000
FTUS45 KBOU 290704 AAA
TAFBJC
TAF AMD
KBJC 290704Z 2907/3006 34006KT P6SM BKN035
     FM290800 05010KT P6SM VCSH BKN025 OVC040
     FM291000 11006KT P6SM SCT025 OVC040
     FM291700 12008KT P6SM SCT030 BKN070
     FM292300 14010KT P6SM SCT040 SCT080
     FM300100 19010KT P6SM FEW080 BKN200=



000
FTUS45 KBOU 290704 AAA
TAFBJC
TAF AMD
KBJC 290704Z 2907/3006 34006KT P6SM BKN035
     FM290800 05010KT P6SM VCSH BKN025 OVC040
     FM291000 11006KT P6SM SCT025 OVC040
     FM291700 12008KT P6SM SCT030 BKN070
     FM292300 14010KT P6SM SCT040 SCT080
     FM300100 19010KT P6SM FEW080 BKN200=



000
FTUS45 KBOU 290626 AAA
TAFDEN
TAF AMD
KDEN 290626Z 2906/3012 34006KT P6SM SCT090 SCT140
     FM290730 03014KT P6SM SCT030 BKN090
     FM290830 06006KT P6SM SCT030 BKN050
     FM291700 12008KT P6SM SCT030 BKN070
     FM292300 14010KT P6SM SCT040 SCT080
     FM300100 19010KT P6SM FEW080 BKN200
     FM300800 22012KT P6SM SCT080 OVC140=



000
FTUS45 KBOU 290626 AAA
TAFDEN
TAF AMD
KDEN 290626Z 2906/3012 34006KT P6SM SCT090 SCT140
     FM290730 03014KT P6SM SCT030 BKN090
     FM290830 06006KT P6SM SCT030 BKN050
     FM291700 12008KT P6SM SCT030 BKN070
     FM292300 14010KT P6SM SCT040 SCT080
     FM300100 19010KT P6SM FEW080 BKN200
     FM300800 22012KT P6SM SCT080 OVC140=



000
FTUS45 KBOU 290546 CCA
TAFAPA
TAF COR
KAPA 290546Z 2906/3006 03006KT P6SM BKN090
     FM290800 05010KT P6SM SCT030 BKN050
     FM291000 11006KT P6SM SCT030 BKN050
     FM291700 12008KT P6SM SCT030 BKN070
     FM292300 14010KT P6SM SCT040 SCT080
     FM300100 19010KT P6SM FEW080 BKN200=



000
FTUS45 KBOU 290546 CCA
TAFAPA
TAF COR
KAPA 290546Z 2906/3006 03006KT P6SM BKN090
     FM290800 05010KT P6SM SCT030 BKN050
     FM291000 11006KT P6SM SCT030 BKN050
     FM291700 12008KT P6SM SCT030 BKN070
     FM292300 14010KT P6SM SCT040 SCT080
     FM300100 19010KT P6SM FEW080 BKN200=



000
FTUS45 KBOU 290545 CCA
TAFDEN
TAF COR
KDEN 290545Z 2906/3012 04008KT P6SM SCT090 SCT140
     FM290630 03014KT P6SM SCT030 BKN090
     FM290800 06006KT P6SM SCT030 BKN050
     FM291700 12008KT P6SM SCT030 BKN070
     FM292300 14010KT P6SM SCT040 SCT080
     FM300100 19010KT P6SM FEW080 BKN200
     FM300800 22012KT P6SM SCT080 OVC140=



000
FTUS45 KBOU 290545 CCA
TAFDEN
TAF COR
KDEN 290545Z 2906/3012 04008KT P6SM SCT090 SCT140
     FM290630 03014KT P6SM SCT030 BKN090
     FM290800 06006KT P6SM SCT030 BKN050
     FM291700 12008KT P6SM SCT030 BKN070
     FM292300 14010KT P6SM SCT040 SCT080
     FM300100 19010KT P6SM FEW080 BKN200
     FM300800 22012KT P6SM SCT080 OVC140=



000
FTUS45 KBOU 290543 CCA
TAFBJC
TAF COR
KBJC 290543Z 2906/3006 02005KT P6SM BKN026
     FM290630 03012KT P6SM BKN025
     FM290800 05010KT P6SM VCSH BKN025 OVC040
     FM291000 11006KT P6SM SCT025 OVC040
     FM291700 12008KT P6SM SCT030 BKN070
     FM292300 14010KT P6SM SCT040 SCT080
     FM300100 19010KT P6SM FEW080 BKN200=



000
FTUS45 KBOU 290543 CCA
TAFBJC
TAF COR
KBJC 290543Z 2906/3006 02005KT P6SM BKN026
     FM290630 03012KT P6SM BKN025
     FM290800 05010KT P6SM VCSH BKN025 OVC040
     FM291000 11006KT P6SM SCT025 OVC040
     FM291700 12008KT P6SM SCT030 BKN070
     FM292300 14010KT P6SM SCT040 SCT080
     FM300100 19010KT P6SM FEW080 BKN200=



000
FTUS45 KBOU 290522
TAFAPA
TAF
KAPA 290522Z 2906/3006 03006KT P6SM BKN090
     FM290700 03014G22KT P6SM SCT060 BKN090
     FM290800 05010KT P6SM SCT050 BKN080
     FM291000 11006KT P6SM SCT030 BKN050
     FM291700 12008KT P6SM SCT030 BKN070
     FM292300 14010KT P6SM SCT040 SCT080
     FM300100 19010KT P6SM FEW080 BKN200=



000
FTUS45 KBOU 290522
TAFBJC
TAF
KBJC 290522Z 2906/3006 02005KT P6SM SCT090 SCT140
     FM290630 03014G22KT P6SM BKN090
     FM290800 05010KT P6SM VCSH SCT050 BKN080
     FM291000 11006KT P6SM SCT030 BKN050
     FM291700 12008KT P6SM SCT030 BKN070
     FM292300 14010KT P6SM SCT040 SCT080
     FM300100 19010KT P6SM FEW080 BKN200=



000
FTUS45 KBOU 290522
TAFDEN
TAF
KDEN 290522Z 2906/3012 03008KT P6SM SCT090 SCT140
     FM290630 03014G22KT P6SM BKN090
     FM290800 05010KT P6SM SCT050 BKN080
     FM291000 11006KT P6SM SCT030 BKN050
     FM291700 12008KT P6SM SCT030 BKN070
     FM292300 14010KT P6SM SCT040 SCT080
     FM300100 19010KT P6SM FEW080 BKN200
     FM300800 22012KT P6SM SCT080 OVC140=



000
FTUS45 KBOU 290522
TAFAPA
TAF
KAPA 290522Z 2906/3006 03006KT P6SM BKN090
     FM290700 03014G22KT P6SM SCT060 BKN090
     FM290800 05010KT P6SM SCT050 BKN080
     FM291000 11006KT P6SM SCT030 BKN050
     FM291700 12008KT P6SM SCT030 BKN070
     FM292300 14010KT P6SM SCT040 SCT080
     FM300100 19010KT P6SM FEW080 BKN200=



000
FTUS45 KBOU 290522
TAFBJC
TAF
KBJC 290522Z 2906/3006 02005KT P6SM SCT090 SCT140
     FM290630 03014G22KT P6SM BKN090
     FM290800 05010KT P6SM VCSH SCT050 BKN080
     FM291000 11006KT P6SM SCT030 BKN050
     FM291700 12008KT P6SM SCT030 BKN070
     FM292300 14010KT P6SM SCT040 SCT080
     FM300100 19010KT P6SM FEW080 BKN200=



000
FTUS45 KBOU 290522
TAFDEN
TAF
KDEN 290522Z 2906/3012 03008KT P6SM SCT090 SCT140
     FM290630 03014G22KT P6SM BKN090
     FM290800 05010KT P6SM SCT050 BKN080
     FM291000 11006KT P6SM SCT030 BKN050
     FM291700 12008KT P6SM SCT030 BKN070
     FM292300 14010KT P6SM SCT040 SCT080
     FM300100 19010KT P6SM FEW080 BKN200
     FM300800 22012KT P6SM SCT080 OVC140=



000
FTUS45 KBOU 290422 AAA
TAFBJC
TAF AMD
KBJC 290422Z 2904/2924 11007KT P6SM FEW090
     FM290500 01012G20KT P6SM SCT050 BKN080
     FM290700 03010KT P6SM SCT035 BKN050 OVC070
     FM291600 12005KT P6SM SCT050 BKN100
     FM292300 14008KT P6SM SCT040 SCT080=



000
FTUS45 KBOU 290422 AAA
TAFBJC
TAF AMD
KBJC 290422Z 2904/2924 11007KT P6SM FEW090
     FM290500 01012G20KT P6SM SCT050 BKN080
     FM290700 03010KT P6SM SCT035 BKN050 OVC070
     FM291600 12005KT P6SM SCT050 BKN100
     FM292300 14008KT P6SM SCT040 SCT080=



000
FTUS45 KBOU 290421 AAB
TAFAPA
TAF AMD
KAPA 290421Z 2904/2924 11008KT P6SM FEW070 SCT120 SCT200
     FM290530 02012G22KT P6SM SCT050 BKN070
     FM290700 04010KT P6SM SCT030 OVC050
     FM291600 12005KT P6SM SCT050 BKN100
     FM292300 15010KT P6SM SCT040 SCT080=



000
FTUS45 KBOU 290421 AAB
TAFAPA
TAF AMD
KAPA 290421Z 2904/2924 11008KT P6SM FEW070 SCT120 SCT200
     FM290530 02012G22KT P6SM SCT050 BKN070
     FM290700 04010KT P6SM SCT030 OVC050
     FM291600 12005KT P6SM SCT050 BKN100
     FM292300 15010KT P6SM SCT040 SCT080=



000
FTUS45 KBOU 290358 AAC
TAFDEN
TAF AMD
KDEN 290358Z 2904/3006 12008KT P6SM SCT090 SCT140
     FM290500 03014G22KT P6SM BKN090
     FM290700 05010KT P6SM SCT050 BKN080
     FM290900 11006KT P6SM SCT030 BKN050
     FM291600 12008KT P6SM SCT030 BKN070
     FM292300 14010KT P6SM SCT040 SCT080=



000
FTUS45 KBOU 290358 AAC
TAFDEN
TAF AMD
KDEN 290358Z 2904/3006 12008KT P6SM SCT090 SCT140
     FM290500 03014G22KT P6SM BKN090
     FM290700 05010KT P6SM SCT050 BKN080
     FM290900 11006KT P6SM SCT030 BKN050
     FM291600 12008KT P6SM SCT030 BKN070
     FM292300 14010KT P6SM SCT040 SCT080=



000
FTUS45 KBOU 290315 AAB
TAFDEN
TAF AMD
KDEN 290315Z 2903/3006 07008KT P6SM SCT090 SCT140
     FM290600 09007KT P6SM SCT050 BKN080
     FM290900 11006KT P6SM SCT030 BKN050
     FM291600 12008KT P6SM SCT030 BKN070
     FM292300 14010KT P6SM SCT040 SCT080=



000
FTUS45 KBOU 290315 AAB
TAFDEN
TAF AMD
KDEN 290315Z 2903/3006 07008KT P6SM SCT090 SCT140
     FM290600 09007KT P6SM SCT050 BKN080
     FM290900 11006KT P6SM SCT030 BKN050
     FM291600 12008KT P6SM SCT030 BKN070
     FM292300 14010KT P6SM SCT040 SCT080=



000
FTUS45 KBOU 290209 AAA
TAFDEN
TAF AMD
KDEN 290209Z 2902/3006 05012KT P6SM FEW070 SCT140 SCT200
     FM290400 08008KT P6SM SCT050 BKN100 OVC150
     FM291000 10006KT P6SM SCT040 BKN080 OVC120
     FM291600 12008KT P6SM SCT030 BKN070
     FM292300 14010KT P6SM SCT040 SCT080=



000
FTUS45 KBOU 290209 AAA
TAFDEN
TAF AMD
KDEN 290209Z 2902/3006 05012KT P6SM FEW070 SCT140 SCT200
     FM290400 08008KT P6SM SCT050 BKN100 OVC150
     FM291000 10006KT P6SM SCT040 BKN080 OVC120
     FM291600 12008KT P6SM SCT030 BKN070
     FM292300 14010KT P6SM SCT040 SCT080=



000
FTUS45 KBOU 290133 AAA
TAFAPA
TAF AMD
KAPA 290133Z 2902/2924 04008KT P6SM FEW070 SCT120 SCT200
     FM290400 02008KT P6SM SCT040 BKN070 BKN100
     FM291000 04006KT P6SM SCT030 BKN060 OVC100
     FM291600 12005KT P6SM SCT050 BKN100
     FM292300 15010KT P6SM SCT040 SCT080=



000
FTUS45 KBOU 290133 AAA
TAFAPA
TAF AMD
KAPA 290133Z 2902/2924 04008KT P6SM FEW070 SCT120 SCT200
     FM290400 02008KT P6SM SCT040 BKN070 BKN100
     FM291000 04006KT P6SM SCT030 BKN060 OVC100
     FM291600 12005KT P6SM SCT050 BKN100
     FM292300 15010KT P6SM SCT040 SCT080=



000
FTUS45 KBOU 282340
TAFBJC
TAF
KBJC 282340Z 2900/2924 01007KT P6SM FEW060
     FM290400 02008KT P6SM SCT040 BKN070 BKN100
     FM291000 04006KT P6SM SCT030 BKN060 OVC100
     FM291600 12005KT P6SM SCT050 BKN100
     FM292300 14008KT P6SM SCT040 SCT080=



000
FTUS45 KBOU 282340
TAFAPA
TAF
KAPA 282340Z 2900/2924 34010G18KT P6SM FEW080 SCT150 SCT200
     FM290400 02008KT P6SM SCT040 BKN070 BKN100
     FM291000 04006KT P6SM SCT030 BKN060 OVC100
     FM291600 12005KT P6SM SCT050 BKN100
     FM292300 15010KT P6SM SCT040 SCT080=



000
FTUS45 KBOU 282340
TAFDEN
TAF
KDEN 282340Z 2900/3006 01014KT P6SM FEW070 SCT140 SCT200
     FM290400 02010KT P6SM SCT050 BKN100 OVC150
     FM291000 04006KT P6SM SCT040 BKN080 OVC120
     FM291600 12008KT P6SM SCT030 BKN070
     FM292300 14010KT P6SM SCT040 SCT080=



000
FTUS45 KBOU 282340
TAFAPA
TAF
KAPA 282340Z 2900/2924 34010G18KT P6SM FEW080 SCT150 SCT200
     FM290400 02008KT P6SM SCT040 BKN070 BKN100
     FM291000 04006KT P6SM SCT030 BKN060 OVC100
     FM291600 12005KT P6SM SCT050 BKN100
     FM292300 15010KT P6SM SCT040 SCT080=



000
FTUS45 KBOU 282340
TAFBJC
TAF
KBJC 282340Z 2900/2924 01007KT P6SM FEW060
     FM290400 02008KT P6SM SCT040 BKN070 BKN100
     FM291000 04006KT P6SM SCT030 BKN060 OVC100
     FM291600 12005KT P6SM SCT050 BKN100
     FM292300 14008KT P6SM SCT040 SCT080=



000
FTUS45 KBOU 282340
TAFDEN
TAF
KDEN 282340Z 2900/3006 01014KT P6SM FEW070 SCT140 SCT200
     FM290400 02010KT P6SM SCT050 BKN100 OVC150
     FM291000 04006KT P6SM SCT040 BKN080 OVC120
     FM291600 12008KT P6SM SCT030 BKN070
     FM292300 14010KT P6SM SCT040 SCT080=



    US Dept of Commerce
    National Oceanic and Atmospheric Administration
    National Weather Service
    1325 East West Highway
    Silver Spring, MD 20910
    Page Author: NWS Internet Services Team
Disclaimer
Information Quality
Credits
Glossary
Privacy Policy
Freedom of Information Act (FOIA)
About Us
Career Opportunities